Time;durP1;ratioP1;P1;durP2;ratioP2;P2;SDS_P1;SDS_P2;PMS_P1;PMS_P2;Temp;Humidity;BMP_temperature;BMP_pressure;BME280_temperature;BME280_humidity;BME280_pressure;Samples;Min_cycle;Max_cycle;Signal;HPM_P1;HPM_P2
2024/01/29 00:01:41;;;;;;;;;;;5.80;99.90;;;;;;5024508;28;20030;-61
2024/01/29 00:04:07;;;;;;;;;;;5.80;99.90;;;;;;5024879;28;19917;-61
2024/01/29 00:06:32;;;;;;;;;;;5.80;99.90;;;;;;5022324;28;20030;-62
2024/01/29 00:08:58;;;;;;;;;;;5.80;99.90;;;;;;5024661;28;19921;-62
2024/01/29 00:11:24;;;;;;;;;;;5.80;99.90;;;;;;5022939;28;19909;-62
2024/01/29 00:13:50;;;;;;;;;;;5.80;99.90;;;;;;5039665;28;19919;-61
2024/01/29 00:16:15;;;;;;;;;;;5.80;99.90;;;;;;5022916;28;19917;-62
2024/01/29 00:18:41;;;;;;;;;;;5.80;99.90;;;;;;5024902;28;19909;-61
2024/01/29 00:21:06;;;;;;;;;;;5.90;99.90;;;;;;5024274;28;19920;-62
2024/01/29 00:23:32;;;;;;;;;;;5.80;99.90;;;;;;5024379;28;19947;-61
2024/01/29 00:25:57;;;;;;;;;;;5.80;99.90;;;;;;5024637;28;19917;-62
2024/01/29 00:28:23;;;;;;;;;;;5.80;99.90;;;;;;5024042;28;19973;-61
2024/01/29 00:30:49;;;;;;;;;;;5.80;99.90;;;;;;5005840;28;19955;-62
2024/01/29 00:33:14;;;;;;;;;;;5.80;99.90;;;;;;5024238;28;20013;-61
2024/01/29 00:35:40;;;;;;;;;;;5.80;99.90;;;;;;5024524;28;19955;-61
2024/01/29 00:38:05;;;;;;;;;;;5.80;99.90;;;;;;5024506;28;19913;-62
2024/01/29 00:40:32;;;;;;;;;;;5.80;99.90;;;;;;5023938;28;19913;-61
2024/01/29 00:42:58;;;;;;;;;;;5.90;99.90;;;;;;5024112;28;19917;-61
2024/01/29 00:45:24;;;;;;;;;;;5.80;99.90;;;;;;5023782;28;20349;-62
2024/01/29 00:47:49;;;;;;;;;;;5.80;99.90;;;;;;5024289;28;19913;-61
2024/01/29 00:50:15;;;;;;;;;;;5.90;99.90;;;;;;5005620;28;19910;-62
2024/01/29 00:52:40;;;;;;;;;;;5.90;99.90;;;;;;5024234;28;19909;-61
2024/01/29 00:55:06;;;;;;;;;;;5.80;99.90;;;;;;5024314;28;20008;-61
2024/01/29 00:57:31;;;;;;;;;;;5.80;99.90;;;;;;5024073;28;19913;-62
2024/01/29 00:59:57;;;;;;;;;;;5.80;99.90;;;;;;5024141;28;19917;-62
2024/01/29 01:02:23;;;;;;;;;;;5.80;99.90;;;;;;5023403;28;20392;-61
2024/01/29 01:04:48;;;;;;;;;;;5.80;99.90;;;;;;5023951;28;19942;-61
2024/01/29 01:07:14;;;;;;;;;;;5.80;99.90;;;;;;5023598;28;19952;-62
2024/01/29 01:09:39;;;;;;;;;;;5.80;99.90;;;;;;5024000;28;20000;-62
2024/01/29 01:12:05;;;;;;;;;;;5.80;99.90;;;;;;5023691;28;19913;-62
2024/01/29 01:14:30;;;;;;;;;;;5.80;99.90;;;;;;5023800;28;20696;-61
2024/01/29 01:16:56;;;;;;;;;;;5.90;99.90;;;;;;5023814;28;20298;-61
2024/01/29 01:19:21;;;;;;;;;;;5.80;99.90;;;;;;5023827;28;20008;-61
2024/01/29 01:21:48;;;;;;;;;;;5.80;99.90;;;;;;5023521;28;19917;-62
2024/01/29 01:24:13;;;;;;;;;;;5.80;99.90;;;;;;5023130;28;19913;-62
2024/01/29 01:26:39;;;;;;;;;;;5.80;99.90;;;;;;5023892;28;20247;-62
2024/01/29 01:29:04;;;;;;;;;;;5.80;99.90;;;;;;5023596;28;19997;-62
2024/01/29 01:31:30;;;;;;;;;;;5.80;99.90;;;;;;5023171;28;19957;-62
2024/01/29 01:33:56;;;;;;;;;;;5.80;99.90;;;;;;5023831;28;20008;-62
2024/01/29 01:36:22;;;;;;;;;;;5.80;99.90;;;;;;5023378;28;20306;-61
2024/01/29 01:38:48;;;;;;;;;;;5.80;99.90;;;;;;5038936;28;20042;-62
2024/01/29 01:41:13;;;;;;;;;;;5.80;99.90;;;;;;5025309;28;20021;-62
2024/01/29 01:43:39;;;;;;;;;;;5.80;99.90;;;;;;5023711;28;19917;-62
2024/01/29 01:46:04;;;;;;;;;;;5.80;99.90;;;;;;5023583;28;19982;-62
2024/01/29 01:48:32;;;;;;;;;;;5.70;99.90;;;;;;5023425;28;19917;-62
2024/01/29 01:50:58;;;;;;;;;;;5.80;99.90;;;;;;5022838;28;19917;-62
2024/01/29 01:53:24;;;;;;;;;;;5.80;99.90;;;;;;5023316;28;19913;-62
2024/01/29 01:55:50;;;;;;;;;;;5.70;99.90;;;;;;5021057;28;19943;-62
2024/01/29 01:58:18;;;;;;;;;;;5.70;99.90;;;;;;5023418;28;19917;-62
2024/01/29 02:00:43;;;;;;;;;;;5.70;99.90;;;;;;5023328;28;20370;-61
2024/01/29 02:03:09;;;;;;;;;;;5.70;99.90;;;;;;5023395;28;19913;-62
2024/01/29 02:05:35;;;;;;;;;;;5.70;99.90;;;;;;5022785;28;19948;-62
2024/01/29 02:08:01;;;;;;;;;;;5.70;99.90;;;;;;5023339;28;19969;-62
2024/01/29 02:10:27;;;;;;;;;;;5.70;99.90;;;;;;5022789;28;20337;-62
2024/01/29 02:12:53;;;;;;;;;;;5.70;99.90;;;;;;5023163;28;19921;-62
2024/01/29 02:15:18;;;;;;;;;;;5.70;99.90;;;;;;5022835;28;20083;-61
2024/01/29 02:17:44;;;;;;;;;;;5.70;99.90;;;;;;5023493;28;20494;-62
2024/01/29 02:20:10;;;;;;;;;;;5.60;99.90;;;;;;5022938;28;19913;-61
2024/01/29 02:22:43;;;;;;;;;;;5.60;99.90;;;;;;5014834;28;19930;-62
2024/01/29 02:25:08;;;;;;;;;;;5.60;99.90;;;;;;5004769;28;19914;-62
2024/01/29 02:27:34;;;;;;;;;;;5.60;99.90;;;;;;5022662;28;19920;-61
2024/01/29 02:29:59;;;;;;;;;;;5.60;99.90;;;;;;5022818;28;19932;-62
2024/01/29 02:32:25;;;;;;;;;;;5.60;99.90;;;;;;5022470;28;20261;-62
2024/01/29 02:34:50;;;;;;;;;;;5.60;99.90;;;;;;5024051;28;19961;-61
2024/01/29 02:37:16;;;;;;;;;;;5.60;99.90;;;;;;5025957;28;20001;-62
2024/01/29 02:39:41;;;;;;;;;;;5.60;99.90;;;;;;5026248;28;20620;-62
2024/01/29 02:42:07;;;;;;;;;;;5.60;99.90;;;;;;5026309;28;19914;-62
2024/01/29 02:44:33;;;;;;;;;;;5.60;99.90;;;;;;5026325;28;19913;-62
2024/01/29 02:46:58;;;;;;;;;;;5.50;99.90;;;;;;5041294;27;19917;-61
2024/01/29 02:49:24;;;;;;;;;;;5.50;99.90;;;;;;5025966;28;19919;-62
2024/01/29 02:51:49;;;;;;;;;;;5.50;99.90;;;;;;5025661;28;19921;-62
2024/01/29 02:54:15;;;;;;;;;;;5.50;99.90;;;;;;5026052;28;19990;-62
2024/01/29 02:56:40;;;;;;;;;;;5.50;99.90;;;;;;5025949;28;20296;-61
2024/01/29 02:59:06;;;;;;;;;;;5.50;99.90;;;;;;5026400;28;19916;-62
2024/01/29 03:01:31;;;;;;;;;;;5.50;99.90;;;;;;5025623;28;19917;-62
2024/01/29 03:03:57;;;;;;;;;;;5.50;99.90;;;;;;5041322;28;20219;-62
2024/01/29 03:06:22;;;;;;;;;;;5.50;99.90;;;;;;5025756;28;20015;-62
2024/01/29 03:08:48;;;;;;;;;;;5.50;99.90;;;;;;5025809;28;19913;-61
2024/01/29 03:11:13;;;;;;;;;;;5.50;99.90;;;;;;5024884;28;20496;-62
2024/01/29 03:13:39;;;;;;;;;;;5.50;99.90;;;;;;5025693;28;19917;-62
2024/01/29 03:16:05;;;;;;;;;;;5.40;99.90;;;;;;5024031;28;19920;-62
2024/01/29 03:18:30;;;;;;;;;;;5.40;99.90;;;;;;5024428;28;19956;-62
2024/01/29 03:20:56;;;;;;;;;;;5.40;99.90;;;;;;5040246;28;19985;-62
2024/01/29 03:23:21;;;;;;;;;;;5.40;99.90;;;;;;5025426;28;19921;-61
2024/01/29 03:25:47;;;;;;;;;;;5.40;99.90;;;;;;5025792;28;19973;-62
2024/01/29 03:28:13;;;;;;;;;;;5.40;99.90;;;;;;5017522;28;19946;-61
2024/01/29 03:30:38;;;;;;;;;;;5.40;99.90;;;;;;5025592;28;20010;-62
2024/01/29 03:33:04;;;;;;;;;;;5.40;99.90;;;;;;5025596;28;19913;-62
2024/01/29 03:35:29;;;;;;;;;;;5.40;99.90;;;;;;5024852;28;20395;-62
2024/01/29 03:37:55;;;;;;;;;;;5.40;99.90;;;;;;5030328;28;20425;-62
2024/01/29 03:40:20;;;;;;;;;;;5.40;99.90;;;;;;5025139;28;19938;-62
2024/01/29 03:42:46;;;;;;;;;;;5.30;99.90;;;;;;5025502;28;19940;-62
2024/01/29 03:45:11;;;;;;;;;;;5.30;99.90;;;;;;5025111;28;19913;-62
2024/01/29 03:47:37;;;;;;;;;;;5.30;99.90;;;;;;5040334;28;19924;-62
2024/01/29 03:50:04;;;;;;;;;;;5.30;99.90;;;;;;5025090;28;20557;-62
2024/01/29 03:52:29;;;;;;;;;;;5.30;99.90;;;;;;5024708;28;19920;-62
2024/01/29 03:54:55;;;;;;;;;;;5.30;99.90;;;;;;5025338;28;19914;-62
2024/01/29 03:57:20;;;;;;;;;;;5.30;99.90;;;;;;5025242;28;19917;-61
2024/01/29 03:59:46;;;;;;;;;;;5.30;99.90;;;;;;5025144;28;19913;-62
2024/01/29 04:02:11;;;;;;;;;;;5.30;99.90;;;;;;5025115;28;19945;-61
2024/01/29 04:04:37;;;;;;;;;;;5.30;99.90;;;;;;5023053;28;19967;-61
2024/01/29 04:07:02;;;;;;;;;;;5.30;99.90;;;;;;5024806;28;19935;-61
2024/01/29 04:09:28;;;;;;;;;;;5.30;99.90;;;;;;5039740;28;19946;-62
2024/01/29 04:11:53;;;;;;;;;;;5.30;99.90;;;;;;5024607;28;19914;-62
2024/01/29 04:14:20;;;;;;;;;;;5.30;99.90;;;;;;5024571;28;19917;-62
2024/01/29 04:16:46;;;;;;;;;;;5.30;99.90;;;;;;5024378;28;19913;-62
2024/01/29 04:19:12;;;;;;;;;;;5.30;99.90;;;;;;5025006;28;19916;-61
2024/01/29 04:21:42;;;;;;;;;;;5.30;99.90;;;;;;5016133;28;19925;-62
2024/01/29 04:24:08;;;;;;;;;;;5.30;99.90;;;;;;5024579;28;19985;-61
2024/01/29 04:26:34;;;;;;;;;;;5.30;99.90;;;;;;5024289;28;20401;-62
2024/01/29 04:28:59;;;;;;;;;;;5.30;99.90;;;;;;5024406;28;19973;-62
2024/01/29 04:31:25;;;;;;;;;;;5.30;99.90;;;;;;5023756;28;19910;-62
2024/01/29 04:33:50;;;;;;;;;;;5.20;99.90;;;;;;5024085;28;19956;-62
2024/01/29 04:36:16;;;;;;;;;;;5.20;99.90;;;;;;5023573;28;19919;-62
2024/01/29 04:38:43;;;;;;;;;;;5.20;99.90;;;;;;5024457;28;19913;-62
2024/01/29 04:41:15;;;;;;;;;;;5.20;99.90;;;;;;5023840;28;19917;-62
2024/01/29 04:43:41;;;;;;;;;;;5.30;99.90;;;;;;5024645;28;19948;-62
2024/01/29 04:46:06;;;;;;;;;;;5.20;99.90;;;;;;5039558;28;19945;-61
2024/01/29 04:48:31;;;;;;;;;;;5.20;99.90;;;;;;5039418;28;19913;-62
2024/01/29 04:50:57;;;;;;;;;;;5.30;99.90;;;;;;5023901;28;19963;-62
2024/01/29 04:53:23;;;;;;;;;;;5.20;99.90;;;;;;5005992;28;19921;-62
2024/01/29 04:55:48;;;;;;;;;;;5.20;99.90;;;;;;5024568;28;19970;-61
2024/01/29 04:58:14;;;;;;;;;;;5.20;99.90;;;;;;5023309;28;19913;-61
2024/01/29 05:00:39;;;;;;;;;;;5.20;99.90;;;;;;5023944;28;19970;-62
2024/01/29 05:03:05;;;;;;;;;;;5.20;99.90;;;;;;5039204;27;20019;-62
2024/01/29 05:05:30;;;;;;;;;;;5.20;99.90;;;;;;5023682;28;19915;-62
2024/01/29 05:07:56;;;;;;;;;;;5.20;99.90;;;;;;5024220;28;20319;-62
2024/01/29 05:10:21;;;;;;;;;;;5.20;99.90;;;;;;5038633;28;19913;-62
2024/01/29 05:12:47;;;;;;;;;;;5.10;99.90;;;;;;5023935;28;19964;-62
2024/01/29 05:15:12;;;;;;;;;;;5.10;99.90;;;;;;5023835;28;20028;-61
2024/01/29 05:17:38;;;;;;;;;;;5.10;99.90;;;;;;5023703;28;19949;-62
2024/01/29 05:20:04;;;;;;;;;;;5.10;99.90;;;;;;5023560;28;19924;-61
2024/01/29 05:22:30;;;;;;;;;;;5.10;99.90;;;;;;5023454;28;20287;-62
2024/01/29 05:24:55;;;;;;;;;;;5.10;99.90;;;;;;5023791;28;19909;-62
2024/01/29 05:27:21;;;;;;;;;;;5.10;99.90;;;;;;5023559;28;19970;-62
2024/01/29 05:29:46;;;;;;;;;;;5.10;99.90;;;;;;5023726;28;19917;-62
2024/01/29 05:32:12;;;;;;;;;;;5.10;99.90;;;;;;5023345;28;19926;-62
2024/01/29 05:34:37;;;;;;;;;;;5.10;99.90;;;;;;5023379;28;19917;-62
2024/01/29 05:37:03;;;;;;;;;;;5.10;99.90;;;;;;5023630;28;19924;-61
2024/01/29 05:39:28;;;;;;;;;;;5.00;99.90;;;;;;5025812;28;19916;-62
2024/01/29 05:41:54;;;;;;;;;;;5.00;99.90;;;;;;5023577;28;19920;-61
2024/01/29 05:44:19;;;;;;;;;;;5.00;99.90;;;;;;5023395;28;19974;-62
2024/01/29 05:46:45;;;;;;;;;;;5.00;99.90;;;;;;5023134;28;19920;-61
2024/01/29 05:49:10;;;;;;;;;;;5.00;99.90;;;;;;5022607;28;20350;-62
2024/01/29 05:51:36;;;;;;;;;;;5.00;99.90;;;;;;5022563;28;19909;-62
2024/01/29 05:54:01;;;;;;;;;;;5.00;99.90;;;;;;5023627;28;20024;-62
2024/01/29 05:56:27;;;;;;;;;;;5.00;99.90;;;;;;5023120;28;19921;-62
2024/01/29 05:58:52;;;;;;;;;;;5.00;99.90;;;;;;5023444;28;20102;-62
2024/01/29 06:01:18;;;;;;;;;;;5.00;99.90;;;;;;5022680;28;19924;-62
2024/01/29 06:03:43;;;;;;;;;;;5.00;99.90;;;;;;5022642;28;19909;-62
2024/01/29 06:06:09;;;;;;;;;;;5.00;99.90;;;;;;5022841;28;19938;-62
2024/01/29 06:08:34;;;;;;;;;;;4.90;99.90;;;;;;5022246;28;20644;-61
2024/01/29 06:11:00;;;;;;;;;;;5.00;99.90;;;;;;5022652;28;20301;-62
2024/01/29 06:13:26;;;;;;;;;;;5.00;99.90;;;;;;5022854;28;19970;-62
2024/01/29 06:15:52;;;;;;;;;;;4.90;99.90;;;;;;5005006;28;20321;-61
2024/01/29 06:18:17;;;;;;;;;;;5.00;99.90;;;;;;5022693;28;19914;-62
2024/01/29 06:20:43;;;;;;;;;;;5.00;99.90;;;;;;5022547;28;19920;-61
2024/01/29 06:23:09;;;;;;;;;;;4.90;99.90;;;;;;5022823;28;19914;-62
2024/01/29 06:25:35;;;;;;;;;;;4.90;99.90;;;;;;5022709;28;19917;-61
2024/01/29 06:28:00;;;;;;;;;;;4.90;99.90;;;;;;5022728;28;20254;-62
2024/01/29 06:30:26;;;;;;;;;;;4.90;99.90;;;;;;5022246;28;19921;-62
2024/01/29 06:32:51;;;;;;;;;;;4.90;99.90;;;;;;5022649;28;19913;-61
2024/01/29 06:35:18;;;;;;;;;;;4.90;99.90;;;;;;5004453;28;19913;-62
2024/01/29 06:37:44;;;;;;;;;;;4.90;99.90;;;;;;5022562;28;19996;-61
2024/01/29 06:40:09;;;;;;;;;;;4.90;99.90;;;;;;5022584;28;19961;-62
2024/01/29 06:42:35;;;;;;;;;;;4.90;99.90;;;;;;5022370;28;20370;-61
2024/01/29 06:45:01;;;;;;;;;;;4.90;99.90;;;;;;5022404;28;19909;-61
2024/01/29 06:47:26;;;;;;;;;;;4.90;99.90;;;;;;5021806;28;19943;-61
2024/01/29 06:49:52;;;;;;;;;;;4.90;99.90;;;;;;5022224;28;20424;-62
2024/01/29 06:52:18;;;;;;;;;;;4.90;99.90;;;;;;5003100;28;20567;-61
2024/01/29 06:54:44;;;;;;;;;;;4.90;99.90;;;;;;5022039;28;20032;-62
2024/01/29 06:57:09;;;;;;;;;;;4.90;99.90;;;;;;5022282;28;19928;-62
2024/01/29 06:59:35;;;;;;;;;;;4.90;99.90;;;;;;5022252;28;19917;-61
2024/01/29 07:02:00;;;;;;;;;;;4.90;99.90;;;;;;5021945;28;19916;-62
2024/01/29 07:04:26;;;;;;;;;;;4.90;99.90;;;;;;5022013;28;19914;-62
2024/01/29 07:06:51;;;;;;;;;;;4.90;99.90;;;;;;5022249;28;19937;-62
2024/01/29 07:09:17;;;;;;;;;;;4.90;99.90;;;;;;5021932;28;19913;-62
2024/01/29 07:11:42;;;;;;;;;;;4.90;99.90;;;;;;5022147;28;20000;-62
2024/01/29 07:14:08;;;;;;;;;;;4.90;99.90;;;;;;5022438;28;19958;-61
2024/01/29 07:16:33;;;;;;;;;;;4.90;99.90;;;;;;5021529;28;20000;-61
2024/01/29 07:18:59;;;;;;;;;;;4.90;99.90;;;;;;5021973;28;19914;-62
2024/01/29 07:21:24;;;;;;;;;;;4.90;99.90;;;;;;5023242;28;19920;-61
2024/01/29 07:23:50;;;;;;;;;;;4.80;99.90;;;;;;5025627;28;20004;-62
2024/01/29 07:26:15;;;;;;;;;;;4.90;99.90;;;;;;5025026;28;19910;-61
2024/01/29 07:28:41;;;;;;;;;;;4.80;99.90;;;;;;5025512;28;19932;-61
2024/01/29 07:31:06;;;;;;;;;;;4.90;99.90;;;;;;5040338;27;19993;-62
2024/01/29 07:33:32;;;;;;;;;;;4.80;99.90;;;;;;5024775;28;19913;-62
2024/01/29 07:35:57;;;;;;;;;;;4.80;99.90;;;;;;5025037;28;20488;-62
2024/01/29 07:38:23;;;;;;;;;;;4.80;99.90;;;;;;5030001;28;20372;-61
2024/01/29 07:40:49;;;;;;;;;;;4.80;99.90;;;;;;5024989;28;20254;-61
2024/01/29 07:43:14;;;;;;;;;;;4.80;99.90;;;;;;5025613;28;20420;-62
2024/01/29 07:45:40;;;;;;;;;;;4.80;99.90;;;;;;5006795;28;19917;-62
2024/01/29 07:48:05;;;;;;;;;;;4.80;99.90;;;;;;5025210;28;19913;-61
2024/01/29 07:50:31;;;;;;;;;;;4.80;99.90;;;;;;5024582;28;19917;-62
2024/01/29 07:52:57;;;;;;;;;;;4.80;99.90;;;;;;5024821;28;19965;-62
2024/01/29 07:55:23;;;;;;;;;;;4.80;99.90;;;;;;5025129;28;19917;-61
2024/01/29 07:57:48;;;;;;;;;;;4.80;99.90;;;;;;5040479;27;19914;-62
2024/01/29 08:00:14;;;;;;;;;;;4.80;99.90;;;;;;5024890;28;19957;-61
2024/01/29 08:02:40;;;;;;;;;;;4.80;99.90;;;;;;5024676;28;19913;-61
2024/01/29 08:05:05;;;;;;;;;;;4.80;99.90;;;;;;5024807;28;19916;-62
2024/01/29 08:07:31;;;;;;;;;;;4.80;99.90;;;;;;5039687;28;19909;-62
2024/01/29 08:10:00;;;;;;;;;;;4.80;99.90;;;;;;5024187;28;19909;-61
2024/01/29 08:12:26;;;;;;;;;;;4.80;99.90;;;;;;5024425;28;20426;-61
2024/01/29 08:14:51;;;;;;;;;;;4.80;99.90;;;;;;5024969;28;19920;-62
2024/01/29 08:17:17;;;;;;;;;;;4.80;99.90;;;;;;5039645;28;19956;-61
2024/01/29 08:19:42;;;;;;;;;;;4.80;99.90;;;;;;5024597;28;19995;-62
2024/01/29 08:22:08;;;;;;;;;;;4.80;99.90;;;;;;5022910;28;19944;-62
2024/01/29 08:24:34;;;;;;;;;;;4.80;99.90;;;;;;5024083;28;20002;-61
2024/01/29 08:26:59;;;;;;;;;;;4.80;99.90;;;;;;5024292;28;19917;-61
2024/01/29 08:29:25;;;;;;;;;;;4.90;99.90;;;;;;5024339;28;19921;-62
2024/01/29 08:31:51;;;;;;;;;;;4.80;99.90;;;;;;5023593;28;19996;-62
2024/01/29 08:34:17;;;;;;;;;;;4.90;99.90;;;;;;5023986;28;19921;-61
2024/01/29 08:36:42;;;;;;;;;;;4.90;99.90;;;;;;5024583;28;19992;-61
2024/01/29 08:39:08;;;;;;;;;;;4.90;99.90;;;;;;5024574;28;19921;-62
2024/01/29 08:41:33;;;;;;;;;;;4.90;99.90;;;;;;5023681;28;19910;-62
2024/01/29 08:43:59;;;;;;;;;;;4.90;99.90;;;;;;5024286;28;20366;-61
2024/01/29 08:46:24;;;;;;;;;;;4.90;99.90;;;;;;5039063;28;19913;-61
2024/01/29 08:48:50;;;;;;;;;;;4.90;99.90;;;;;;5024588;28;19917;-61
2024/01/29 08:51:15;;;;;;;;;;;5.00;99.90;;;;;;5038711;28;20564;-62
2024/01/29 08:53:41;;;;;;;;;;;5.00;99.90;;;;;;5023876;28;19914;-61
2024/01/29 08:56:07;;;;;;;;;;;5.00;99.90;;;;;;5024154;28;19934;-62
2024/01/29 08:58:32;;;;;;;;;;;5.00;99.90;;;;;;5023640;28;20000;-62
2024/01/29 09:00:58;;;;;;;;;;;5.00;99.90;;;;;;5023611;28;20398;-62
2024/01/29 09:03:24;;;;;;;;;;;5.10;99.90;;;;;;5023807;28;20219;-61
2024/01/29 09:05:50;;;;;;;;;;;5.10;99.90;;;;;;5023826;28;19913;-61
2024/01/29 09:08:16;;;;;;;;;;;5.10;99.90;;;;;;5023987;28;20307;-62
2024/01/29 09:10:41;;;;;;;;;;;5.10;99.90;;;;;;5023509;28;19917;-61
2024/01/29 09:13:07;;;;;;;;;;;5.20;99.90;;;;;;5022603;28;19917;-62
2024/01/29 09:15:32;;;;;;;;;;;5.20;99.90;;;;;;5022985;28;19924;-61
2024/01/29 09:17:58;;;;;;;;;;;5.20;99.90;;;;;;5023912;28;19909;-62
2024/01/29 09:20:24;;;;;;;;;;;5.30;99.90;;;;;;5023239;28;19909;-62
2024/01/29 09:22:49;;;;;;;;;;;5.30;99.90;;;;;;5023555;28;19913;-62
2024/01/29 09:25:15;;;;;;;;;;;5.30;99.90;;;;;;5023667;28;19970;-61
2024/01/29 09:27:40;;;;;;;;;;;5.30;99.90;;;;;;5023113;28;20346;-61
2024/01/29 09:30:06;;;;;;;;;;;5.30;99.90;;;;;;5023207;28;19981;-62
2024/01/29 09:32:31;;;;;;;;;;;5.40;99.90;;;;;;5023295;28;19913;-61
2024/01/29 09:34:57;;;;;;;;;;;5.40;99.90;;;;;;5028074;28;19956;-62
2024/01/29 09:37:23;;;;;;;;;;;5.40;99.90;;;;;;5023260;28;20007;-61
2024/01/29 09:39:50;;;;;;;;;;;5.40;99.90;;;;;;5023286;28;19948;-62
2024/01/29 09:42:17;;;;;;;;;;;5.40;99.90;;;;;;5023230;28;19913;-62
2024/01/29 09:44:44;;;;;;;;;;;5.50;99.90;;;;;;5023078;28;19920;-62
2024/01/29 09:47:10;;;;;;;;;;;5.50;99.90;;;;;;5023414;28;19936;-62
2024/01/29 09:49:39;;;;;;;;;;;5.50;99.90;;;;;;5023185;28;20358;-62
2024/01/29 09:52:05;;;;;;;;;;;5.50;99.90;;;;;;5023012;28;20039;-62
2024/01/29 09:54:31;;;;;;;;;;;5.60;99.90;;;;;;5023246;28;20000;-62
2024/01/29 09:56:56;;;;;;;;;;;5.60;99.90;;;;;;5023194;28;20522;-61
2024/01/29 09:59:22;;;;;;;;;;;5.60;99.90;;;;;;5022923;28;19914;-61
2024/01/29 10:01:48;;;;;;;;;;;5.70;99.90;;;;;;5021616;28;19913;-61
2024/01/29 10:04:14;;;;;;;;;;;5.70;99.90;;;;;;5030287;28;19913;-62
2024/01/29 10:06:39;;;;;;;;;;;5.70;99.90;;;;;;5022454;28;20403;-62
2024/01/29 10:09:05;;;;;;;;;;;5.80;99.90;;;;;;5038403;28;19909;-62
2024/01/29 10:11:30;;;;;;;;;;;5.80;99.90;;;;;;5022555;28;19909;-61
2024/01/29 10:13:59;;;;;;;;;;;5.80;99.90;;;;;;5023087;28;20079;-61
2024/01/29 10:16:25;;;;;;;;;;;5.90;99.90;;;;;;5022519;28;20362;-61
2024/01/29 10:18:57;;;;;;;;;;;5.90;99.90;;;;;;5022976;28;19917;-62
2024/01/29 10:21:23;;;;;;;;;;;5.90;99.90;;;;;;5015373;28;20028;-61
2024/01/29 10:23:55;;;;;;;;;;;6.00;99.90;;;;;;5022928;28;20102;-62
2024/01/29 10:26:21;;;;;;;;;;;6.00;99.90;;;;;;5020353;28;19909;-62
2024/01/29 10:28:47;;;;;;;;;;;6.00;99.90;;;;;;5022087;28;19923;-61
2024/01/29 10:31:12;;;;;;;;;;;6.10;99.90;;;;;;5022499;28;20019;-62
2024/01/29 10:33:39;;;;;;;;;;;6.10;99.90;;;;;;5022526;28;20280;-61
2024/01/29 10:36:05;;;;;;;;;;;6.10;99.90;;;;;;5022564;28;19955;-61
2024/01/29 10:38:33;;;;;;;;;;;6.20;99.90;;;;;;5022599;28;20393;-62
2024/01/29 10:40:59;;;;;;;;;;;6.20;99.90;;;;;;5022545;28;19971;-61
2024/01/29 10:43:28;;;;;;;;;;;6.20;99.90;;;;;;5022430;28;20350;-62
2024/01/29 10:45:54;;;;;;;;;;;6.30;99.90;;;;;;5022768;28;19947;-62
2024/01/29 10:48:21;;;;;;;;;;;6.30;99.90;;;;;;5022627;28;19913;-61
2024/01/29 10:50:47;;;;;;;;;;;6.40;99.90;;;;;;5022538;28;20546;-61
2024/01/29 10:53:13;;;;;;;;;;;6.40;99.90;;;;;;5022175;28;20024;-61
2024/01/29 10:55:39;;;;;;;;;;;6.40;99.90;;;;;;5038401;28;19963;-61
2024/01/29 10:58:05;;;;;;;;;;;6.50;99.90;;;;;;5025747;28;20361;-62
2024/01/29 11:00:31;;;;;;;;;;;6.50;99.90;;;;;;5025532;28;19909;-62
2024/01/29 11:02:57;;;;;;;;;;;6.50;99.90;;;;;;5025744;28;19920;-62
2024/01/29 11:05:23;;;;;;;;;;;6.60;99.90;;;;;;5025363;28;19917;-62
2024/01/29 11:07:51;;;;;;;;;;;6.60;99.90;;;;;;5025910;28;19916;-62
2024/01/29 11:10:22;;;;;;;;;;;6.60;99.90;;;;;;5025802;28;20010;-61
2024/01/29 11:12:49;;;;;;;;;;;6.70;99.90;;;;;;5018060;28;19945;-62
2024/01/29 11:15:14;;;;;;;;;;;6.70;99.90;;;;;;5025347;28;19920;-62
2024/01/29 11:17:41;;;;;;;;;;;6.80;99.90;;;;;;5040613;28;20614;-62
2024/01/29 11:20:10;;;;;;;;;;;6.80;99.90;;;;;;5025260;28;20267;-62
2024/01/29 11:22:36;;;;;;;;;;;6.90;99.90;;;;;;5025029;28;19953;-62
2024/01/29 11:25:20;;;;;;;;;;;7.00;99.90;;;;;;5025422;28;19944;-62
2024/01/29 11:27:47;;;;;;;;;;;7.00;99.90;;;;;;5016997;28;19917;-61
2024/01/29 11:30:14;;;;;;;;;;;7.10;99.90;;;;;;5024893;28;19960;-61
2024/01/29 11:32:40;;;;;;;;;;;7.20;99.90;;;;;;5025090;28;20104;-62
2024/01/29 11:35:13;;;;;;;;;;;7.30;99.90;;;;;;5027691;28;20609;-62
2024/01/29 11:37:39;;;;;;;;;;;7.30;99.90;;;;;;5025548;28;20005;-62
2024/01/29 11:40:24;;;;;;;;;;;7.40;99.90;;;;;;5025251;28;19913;-62
2024/01/29 11:42:50;;;;;;;;;;;7.50;99.90;;;;;;5017627;28;19913;-62
2024/01/29 11:45:17;;;;;;;;;;;7.50;99.90;;;;;;5040319;27;20365;-62
2024/01/29 11:47:42;;;;;;;;;;;7.60;99.90;;;;;;5024719;28;19913;-62
2024/01/29 11:50:09;;;;;;;;;;;7.60;99.90;;;;;;5039918;27;19913;-62
2024/01/29 11:52:34;;;;;;;;;;;7.60;99.90;;;;;;5024422;28;19993;-62
2024/01/29 11:55:00;;;;;;;;;;;7.70;99.90;;;;;;5025185;28;19909;-62
2024/01/29 11:57:25;;;;;;;;;;;7.70;99.90;;;;;;5039854;28;19921;-61
2024/01/29 11:59:51;;;;;;;;;;;7.80;99.90;;;;;;5024789;28;19937;-62
2024/01/29 12:02:16;;;;;;;;;;;7.80;99.90;;;;;;5024467;28;19920;-62
2024/01/29 12:04:43;;;;;;;;;;;7.80;99.90;;;;;;5024905;28;19913;-62
2024/01/29 12:07:08;;;;;;;;;;;7.90;99.90;;;;;;5024367;28;20053;-62
2024/01/29 12:09:35;;;;;;;;;;;7.90;99.90;;;;;;5024514;28;19913;-62
2024/01/29 12:12:01;;;;;;;;;;;7.90;99.90;;;;;;5024507;28;19913;-62
2024/01/29 12:14:26;;;;;;;;;;;7.90;99.90;;;;;;5024639;28;20337;-62
2024/01/29 12:16:52;;;;;;;;;;;8.00;99.90;;;;;;5039890;28;20487;-62
2024/01/29 12:19:17;;;;;;;;;;;8.00;99.90;;;;;;5024863;28;19921;-62
2024/01/29 12:21:43;;;;;;;;;;;8.00;99.90;;;;;;5006113;28;20481;-62
2024/01/29 12:24:09;;;;;;;;;;;8.00;99.90;;;;;;5024410;28;19916;-62
2024/01/29 12:26:37;;;;;;;;;;;8.10;99.90;;;;;;5024210;28;19917;-62
2024/01/29 12:29:04;;;;;;;;;;;8.10;99.90;;;;;;5024177;28;20503;-62
2024/01/29 12:31:30;;;;;;;;;;;8.10;99.90;;;;;;5023821;28;19909;-62
2024/01/29 12:33:55;;;;;;;;;;;8.20;99.90;;;;;;5024570;28;19913;-62
2024/01/29 12:36:21;;;;;;;;;;;8.20;99.90;;;;;;5024186;28;20502;-62
2024/01/29 12:38:53;;;;;;;;;;;8.30;99.90;;;;;;5039505;28;19921;-62
2024/01/29 12:41:19;;;;;;;;;;;8.30;99.90;;;;;;5024056;28;20000;-62
2024/01/29 12:43:45;;;;;;;;;;;8.40;99.90;;;;;;5023987;28;20028;-62
2024/01/29 12:46:11;;;;;;;;;;;8.40;99.90;;;;;;5039513;28;19913;-62
2024/01/29 12:48:37;;;;;;;;;;;8.50;99.90;;;;;;5023931;28;20320;-62
2024/01/29 12:51:04;;;;;;;;;;;8.50;99.90;;;;;;5023658;28;19913;-62
2024/01/29 12:53:29;;;;;;;;;;;8.60;99.90;;;;;;5023972;28;19949;-62
2024/01/29 12:55:55;;;;;;;;;;;8.60;99.90;;;;;;5024396;28;19960;-62
2024/01/29 12:58:20;;;;;;;;;;;8.70;99.90;;;;;;5024034;28;19909;-62
2024/01/29 13:00:46;;;;;;;;;;;8.70;99.90;;;;;;5024070;28;20015;-62
2024/01/29 13:03:12;;;;;;;;;;;8.80;99.90;;;;;;5023953;28;19990;-62
2024/01/29 13:05:37;;;;;;;;;;;8.80;99.90;;;;;;5023573;28;19928;-62
2024/01/29 13:08:03;;;;;;;;;;;8.90;99.90;;;;;;5024101;28;20011;-62
2024/01/29 13:10:30;;;;;;;;;;;8.90;99.90;;;;;;5023715;28;20258;-62
2024/01/29 13:12:55;;;;;;;;;;;9.00;99.90;;;;;;5023811;28;19939;-62
2024/01/29 13:15:21;;;;;;;;;;;9.00;99.90;;;;;;5023724;28;19937;-62
2024/01/29 13:17:47;;;;;;;;;;;9.00;99.90;;;;;;5023279;28;19913;-62
2024/01/29 13:20:12;;;;;;;;;;;9.10;99.90;;;;;;5018196;28;20499;-62
2024/01/29 13:22:38;;;;;;;;;;;9.10;99.90;;;;;;5022087;28;19940;-62
2024/01/29 13:25:05;;;;;;;;;;;9.20;99.90;;;;;;5023002;28;19909;-62
2024/01/29 13:27:31;;;;;;;;;;;9.20;99.90;;;;;;5022305;28;19914;-61
2024/01/29 13:29:57;;;;;;;;;;;9.30;99.90;;;;;;5004950;28;20293;-62
2024/01/29 13:32:23;;;;;;;;;;;9.30;99.90;;;;;;5022302;28;19975;-62
2024/01/29 13:34:48;;;;;;;;;;;9.30;99.90;;;;;;5022888;28;19914;-62
2024/01/29 13:37:15;;;;;;;;;;;9.30;99.90;;;;;;5023363;28;19927;-62
2024/01/29 13:39:41;;;;;;;;;;;9.30;99.90;;;;;;5022617;28;19917;-61
2024/01/29 13:42:06;;;;;;;;;;;9.30;99.90;;;;;;5022280;28;19910;-61
2024/01/29 13:44:32;;;;;;;;;;;9.40;99.90;;;;;;5022316;28;19980;-62
2024/01/29 13:46:57;;;;;;;;;;;9.40;99.90;;;;;;5022568;28;20641;-62
2024/01/29 13:49:23;;;;;;;;;;;9.40;99.90;;;;;;5022249;28;19919;-61
2024/01/29 13:51:48;;;;;;;;;;;9.40;99.90;;;;;;5022024;28;20000;-62
2024/01/29 13:54:14;;;;;;;;;;;9.50;99.90;;;;;;5004866;28;19913;-61
2024/01/29 13:56:39;;;;;;;;;;;9.50;99.90;;;;;;5022155;28;19917;-61
2024/01/29 13:59:05;;;;;;;;;;;9.50;99.90;;;;;;5021900;28;20307;-61
2024/01/29 14:01:30;;;;;;;;;;;9.50;99.90;;;;;;5021435;28;19963;-61
2024/01/29 14:03:56;;;;;;;;;;;9.50;99.90;;;;;;5021489;28;19915;-61
2024/01/29 14:06:22;;;;;;;;;;;9.50;99.90;;;;;;5020448;28;20285;-61
2024/01/29 14:08:47;;;;;;;;;;;9.50;99.90;;;;;;5022536;28;19917;-62
2024/01/29 14:11:13;;;;;;;;;;;9.50;99.90;;;;;;5022310;28;20595;-61
2024/01/29 14:13:39;;;;;;;;;;;9.60;99.90;;;;;;5022033;28;19909;-62
2024/01/29 14:16:04;;;;;;;;;;;9.60;99.90;;;;;;5022099;28;19924;-61
2024/01/29 14:18:30;;;;;;;;;;;9.60;99.90;;;;;;5022214;28;20057;-61
2024/01/29 14:20:56;;;;;;;;;;;9.60;99.90;;;;;;5004069;28;20258;-62
2024/01/29 14:23:21;;;;;;;;;;;9.50;99.90;;;;;;5037274;27;19913;-62